createdAt,value
2019-03-21T00:02:13.209Z,8.90
2019-03-21T00:04:43.771Z,8.90
2019-03-21T00:07:13.092Z,8.90
2019-03-21T00:10:01.945Z,9.00
2019-03-21T00:12:31.532Z,9.00
2019-03-21T00:15:03.953Z,9.00
2019-03-21T00:17:36.083Z,9.00
2019-03-21T00:20:08.469Z,9.00
2019-03-21T00:22:37.779Z,9.00
2019-03-21T00:25:10.349Z,9.00
2019-03-21T00:27:39.645Z,9.00
2019-03-21T00:30:15.103Z,9.00
2019-03-21T00:32:44.479Z,9.00
2019-03-21T00:35:13.798Z,8.90
2019-03-21T00:37:43.106Z,9.00
2019-03-21T00:40:18.276Z,9.00
2019-03-21T00:42:48.227Z,9.00
2019-03-21T00:45:21.628Z,9.00
2019-03-21T00:47:50.955Z,9.00
2019-03-21T00:50:30.465Z,9.00
2019-03-21T00:52:59.775Z,9.00
2019-03-21T00:55:32.341Z,9.00
2019-03-21T00:58:01.660Z,9.00
2019-03-21T01:00:34.052Z,8.90
2019-03-21T01:03:03.947Z,9.00
2019-03-21T01:05:33.411Z,9.00
2019-03-21T01:08:03.755Z,9.00
2019-03-21T01:10:33.136Z,9.00
2019-03-21T01:13:02.446Z,9.00
2019-03-21T01:15:31.844Z,9.00
2019-03-21T01:18:01.157Z,9.00
2019-03-21T01:20:30.475Z,9.00
2019-03-21T01:22:59.788Z,9.00
2019-03-21T01:25:32.173Z,9.00
2019-03-21T01:28:01.483Z,9.00
2019-03-21T01:30:30.814Z,9.00
2019-03-21T01:33:00.129Z,8.90
2019-03-21T01:35:29.557Z,8.90
2019-03-21T01:37:58.875Z,8.90
2019-03-21T01:40:43.009Z,8.90
2019-03-21T01:43:12.315Z,8.90
2019-03-21T01:45:41.632Z,8.90
2019-03-21T01:48:11.112Z,8.90
2019-03-21T01:50:41.483Z,9.00
2019-03-21T01:53:10.781Z,9.00
2019-03-21T01:55:40.111Z,9.00
2019-03-21T01:58:09.427Z,9.00
2019-03-21T02:00:49.883Z,9.00
2019-03-21T02:03:19.358Z,9.00
2019-03-21T02:05:49.528Z,9.00
2019-03-21T02:08:18.948Z,9.00
2019-03-21T02:10:48.551Z,9.00
2019-03-21T02:13:17.928Z,9.00
2019-03-21T02:15:47.252Z,9.10
2019-03-21T02:18:16.572Z,9.10
2019-03-21T02:20:45.895Z,9.00
2019-03-21T02:23:15.211Z,9.00
2019-03-21T02:25:45.876Z,9.00
2019-03-21T02:28:15.194Z,9.00
2019-03-21T02:30:46.869Z,9.00
2019-03-21T02:33:19.523Z,9.10
2019-03-21T02:35:48.841Z,9.10
2019-03-21T02:38:18.146Z,9.10
2019-03-21T02:40:48.799Z,9.10
2019-03-21T02:43:18.198Z,9.10
2019-03-21T02:45:47.518Z,9.10
2019-03-21T02:48:16.898Z,9.10
2019-03-21T02:50:46.207Z,9.10
2019-03-21T02:53:15.596Z,9.10
2019-03-21T02:55:46.241Z,9.10
2019-03-21T02:58:15.554Z,9.00
2019-03-21T03:00:46.100Z,9.10
2019-03-21T03:03:15.422Z,9.00
2019-03-21T03:05:44.741Z,9.00
2019-03-21T03:08:14.115Z,9.00
2019-03-21T03:10:51.713Z,9.00
2019-03-21T03:13:21.154Z,9.00
2019-03-21T03:15:50.747Z,9.00
2019-03-21T03:18:26.566Z,9.00
2019-03-21T03:20:55.928Z,8.90
2019-03-21T03:23:25.278Z,8.90
2019-03-21T03:25:54.663Z,8.90
2019-03-21T03:28:26.771Z,8.90
2019-03-21T03:30:58.212Z,8.90
2019-03-21T03:33:28.071Z,8.90
2019-03-21T03:35:57.441Z,8.90
2019-03-21T03:38:26.760Z,8.90
2019-03-21T03:41:01.035Z,8.90
2019-03-21T03:43:30.415Z,8.90
2019-03-21T03:45:59.729Z,8.90
2019-03-21T03:48:29.302Z,8.90
2019-03-21T03:50:58.664Z,8.90
2019-03-21T03:53:27.990Z,8.90
2019-03-21T03:55:57.295Z,8.80
2019-03-21T03:58:34.952Z,8.80
2019-03-21T04:01:04.621Z,8.80
2019-03-21T04:03:33.971Z,8.80
2019-03-21T04:06:05.118Z,8.80
2019-03-21T04:08:34.485Z,8.80
2019-03-21T04:11:03.809Z,8.80
2019-03-21T04:13:33.188Z,8.80
2019-03-21T04:16:02.509Z,8.80
2019-03-21T04:18:31.937Z,8.80
2019-03-21T04:21:04.614Z,8.80
2019-03-21T04:23:33.935Z,8.80
2019-03-21T04:26:18.136Z,8.80
2019-03-21T04:28:47.464Z,8.80
2019-03-21T04:31:16.766Z,8.80
2019-03-21T04:33:47.328Z,8.80
2019-03-21T04:36:16.650Z,8.80
2019-03-21T04:38:45.971Z,8.80
2019-03-21T04:41:15.294Z,8.80
2019-03-21T04:43:44.781Z,8.70
2019-03-21T04:46:14.241Z,8.80
2019-03-21T04:48:43.562Z,8.80
2019-03-21T04:51:12.859Z,8.80
2019-03-21T04:53:42.177Z,8.80
2019-03-21T04:56:11.493Z,8.80
2019-03-21T04:58:42.026Z,8.80
2019-03-21T05:01:11.349Z,8.80
2019-03-21T05:03:40.705Z,8.80
2019-03-21T05:06:10.005Z,8.80
2019-03-21T05:08:39.320Z,8.80
2019-03-21T05:11:08.637Z,8.90
2019-03-21T05:13:37.954Z,8.90
2019-03-21T05:16:14.660Z,8.90
2019-03-21T05:18:51.544Z,8.90
2019-03-21T05:21:23.087Z,8.90
2019-03-21T05:23:52.408Z,8.90
2019-03-21T05:26:21.725Z,8.80
2019-03-21T05:28:51.046Z,8.80
2019-03-21T05:31:32.233Z,8.80
2019-03-21T05:34:02.621Z,8.80
2019-03-21T05:36:31.933Z,8.80
2019-03-21T05:39:01.305Z,8.80
2019-03-21T05:41:31.697Z,8.80
2019-03-21T05:44:04.099Z,8.80
2019-03-21T05:46:33.666Z,8.80
2019-03-21T05:49:03.006Z,8.80
2019-03-21T05:51:32.346Z,8.80
2019-03-21T05:54:01.666Z,8.90
2019-03-21T05:56:30.968Z,9.00
2019-03-21T05:59:00.296Z,8.90
2019-03-21T06:01:29.609Z,9.00
2019-03-21T06:03:58.930Z,9.00
2019-03-21T06:06:40.438Z,9.00
2019-03-21T06:09:15.725Z,9.00
2019-03-21T06:11:48.532Z,9.00
2019-03-21T06:14:36.435Z,9.00
2019-03-21T06:17:07.428Z,9.00
2019-03-21T06:19:51.831Z,9.00
2019-03-21T06:22:24.212Z,9.00
2019-03-21T06:25:17.834Z,9.00
2019-03-21T06:27:47.138Z,9.10
2019-03-21T06:30:16.447Z,9.10
2019-03-21T06:32:46.703Z,9.20
2019-03-21T06:35:20.507Z,9.30
2019-03-21T06:37:49.804Z,9.30
2019-03-21T06:40:19.120Z,9.40
2019-03-21T06:42:48.445Z,9.40
2019-03-21T06:45:17.776Z,9.40
2019-03-21T06:47:47.088Z,9.30
2019-03-21T06:50:16.424Z,9.30
2019-03-21T06:52:45.734Z,9.30
2019-03-21T06:55:16.024Z,9.30
2019-03-21T06:57:45.341Z,9.40
2019-03-21T07:00:14.791Z,9.40
2019-03-21T07:02:44.100Z,9.50
2019-03-21T07:05:13.565Z,9.50
2019-03-21T07:07:42.870Z,9.50
2019-03-21T07:10:12.457Z,9.50
2019-03-21T07:12:41.844Z,9.50
2019-03-21T07:15:12.968Z,9.60
2019-03-21T07:17:43.244Z,9.60
2019-03-21T07:20:13.402Z,9.70
2019-03-21T07:22:42.708Z,9.80
2019-03-21T07:25:12.101Z,9.80
2019-03-21T07:27:41.473Z,9.90
2019-03-21T07:30:13.331Z,9.90
2019-03-21T07:32:43.616Z,9.90
2019-03-21T07:35:13.083Z,10.00
2019-03-21T07:37:42.404Z,10.00
2019-03-21T07:40:13.266Z,10.10
2019-03-21T07:42:42.571Z,10.10
2019-03-21T07:45:12.654Z,10.20
2019-03-21T07:47:42.019Z,10.30
2019-03-21T07:50:13.279Z,10.30
2019-03-21T07:52:42.596Z,10.30
2019-03-21T07:55:13.466Z,10.40
2019-03-21T07:57:42.771Z,10.40
2019-03-21T08:00:17.088Z,10.40
2019-03-21T08:02:46.405Z,10.50
2019-03-21T08:05:16.871Z,10.50
2019-03-21T08:07:47.440Z,10.60
2019-03-21T08:10:16.794Z,10.60
2019-03-21T08:12:46.104Z,10.70
2019-03-21T08:15:16.264Z,10.70
2019-03-21T08:17:45.775Z,10.80
2019-03-21T08:20:16.209Z,10.90
2019-03-21T08:22:45.598Z,11.00
2019-03-21T08:25:14.988Z,11.10
2019-03-21T08:27:44.304Z,11.10
2019-03-21T08:30:28.344Z,11.10
2019-03-21T08:32:57.714Z,11.20
2019-03-21T08:35:27.999Z,11.20
2019-03-21T08:37:57.315Z,11.30
2019-03-21T08:40:26.631Z,11.40
2019-03-21T08:42:55.956Z,11.50
2019-03-21T08:45:25.267Z,11.60
2019-03-21T08:47:55.566Z,11.70
2019-03-21T08:50:24.898Z,11.80
2019-03-21T08:52:54.227Z,11.90
2019-03-21T08:55:23.548Z,12.00
2019-03-21T08:57:54.391Z,12.10
2019-03-21T09:03:14.223Z,12.50
2019-03-21T09:05:43.639Z,12.80
2019-03-21T09:08:13.339Z,13.00
2019-03-21T09:10:42.789Z,13.80
2019-03-21T09:13:13.724Z,14.60
2019-03-21T09:15:43.281Z,14.90
2019-03-21T09:18:13.276Z,15.40
2019-03-21T09:20:42.793Z,15.70
2019-03-21T09:23:13.239Z,16.00
2019-03-21T09:25:42.766Z,16.10
2019-03-21T09:28:14.172Z,15.80
2019-03-21T09:30:45.823Z,16.00
2019-03-21T09:33:15.224Z,16.20
2019-03-21T09:35:44.679Z,16.70
2019-03-21T09:38:14.162Z,16.90
2019-03-21T09:40:44.847Z,16.70
2019-03-21T09:43:15.614Z,16.70
2019-03-21T09:45:45.276Z,16.80
2019-03-21T09:48:18.090Z,16.50
2019-03-21T09:50:51.032Z,16.80
2019-03-21T09:53:21.148Z,17.00
2019-03-21T09:55:51.868Z,17.40
2019-03-21T09:58:21.491Z,17.40
2019-03-21T10:00:51.285Z,17.10
2019-03-21T10:03:20.791Z,17.20
2019-03-21T10:05:50.265Z,17.30
2019-03-21T10:08:19.884Z,17.20
2019-03-21T10:10:51.275Z,17.00
2019-03-21T10:13:20.905Z,16.90
2019-03-21T10:15:50.561Z,16.90
2019-03-21T10:18:20.093Z,17.00
2019-03-21T10:20:49.595Z,17.50
2019-03-21T10:23:19.041Z,18.00
2019-03-21T10:25:48.960Z,18.40
2019-03-21T10:28:18.522Z,18.10
2019-03-21T10:30:48.111Z,17.60
2019-03-21T10:33:17.994Z,17.90
2019-03-21T10:35:50.031Z,18.00
2019-03-21T10:38:19.601Z,18.10
2019-03-21T10:40:49.073Z,18.50
2019-03-21T10:43:19.166Z,18.40
2019-03-21T10:45:51.582Z,18.80
2019-03-21T10:48:23.502Z,18.70
2019-03-21T10:51:11.613Z,18.60
2019-03-21T10:53:41.997Z,18.70
2019-03-21T10:56:12.916Z,18.40
2019-03-21T10:58:42.717Z,18.80
2019-03-21T11:01:15.203Z,19.10
2019-03-21T11:03:46.940Z,19.00
2019-03-21T11:06:16.556Z,19.00
2019-03-21T11:08:47.020Z,18.70
2019-03-21T11:11:16.499Z,18.50
2019-03-21T11:13:46.177Z,18.80
2019-03-21T11:16:17.970Z,19.10
2019-03-21T11:18:48.256Z,19.00
2019-03-21T11:21:18.761Z,18.70
2019-03-21T11:23:48.484Z,18.50
2019-03-21T11:26:18.331Z,18.60
2019-03-21T11:28:48.439Z,19.30
2019-03-21T11:31:20.432Z,19.50
2019-03-21T11:33:50.846Z,19.50
2019-03-21T11:36:21.442Z,19.50
2019-03-21T11:38:50.932Z,19.10
2019-03-21T11:41:21.443Z,18.80
2019-03-21T11:43:50.990Z,18.80
2019-03-21T11:46:24.075Z,18.80
2019-03-21T11:48:53.722Z,19.00
2019-03-21T11:51:24.297Z,18.60
2019-03-21T11:53:54.591Z,18.70
2019-03-21T11:56:24.074Z,19.30
2019-03-21T11:58:54.612Z,19.60
2019-03-21T12:01:24.363Z,19.80
2019-03-21T12:03:54.120Z,19.90
2019-03-21T12:06:24.534Z,20.30
2019-03-21T12:08:54.210Z,20.10
2019-03-21T12:11:23.695Z,19.50
2019-03-21T12:13:54.624Z,19.20
2019-03-21T12:16:24.650Z,19.10
2019-03-21T12:21:35.441Z,19.10
2019-03-21T12:24:05.410Z,19.10
2019-03-21T12:26:35.106Z,18.90
2019-03-21T12:29:04.589Z,18.70
2019-03-21T12:31:34.099Z,18.90
2019-03-21T12:34:04.004Z,18.90
2019-03-21T12:36:34.263Z,18.70
2019-03-21T12:39:07.684Z,18.80
2019-03-21T12:41:37.265Z,19.50
2019-03-21T12:44:08.543Z,19.70
2019-03-21T12:46:39.503Z,19.60
2019-03-21T12:49:10.436Z,19.40
2019-03-21T12:51:40.210Z,19.10
2019-03-21T12:54:09.730Z,19.70
2019-03-21T12:56:41.552Z,20.40
2019-03-21T12:59:12.104Z,19.90
2019-03-21T13:01:41.619Z,19.50
2019-03-21T13:04:11.843Z,20.10
2019-03-21T13:06:41.474Z,20.80
2019-03-21T13:09:11.326Z,21.80
2019-03-21T13:11:41.179Z,22.20
2019-03-21T13:14:10.670Z,22.00
2019-03-21T13:16:40.301Z,21.80
2019-03-21T13:19:09.952Z,21.70
2019-03-21T13:21:39.598Z,21.80
2019-03-21T13:24:10.018Z,21.90
2019-03-21T13:26:39.497Z,21.80
2019-03-21T13:29:09.350Z,20.60
2019-03-21T13:31:39.125Z,20.00
2019-03-21T13:34:08.704Z,19.60
2019-03-21T13:36:38.532Z,19.90
2019-03-21T13:39:08.524Z,20.70
2019-03-21T13:41:39.193Z,20.70
2019-03-21T13:44:10.036Z,20.50
2019-03-21T13:46:39.843Z,20.10
2019-03-21T13:49:09.297Z,20.30
2019-03-21T13:51:39.137Z,20.50
2019-03-21T13:54:09.030Z,20.90
2019-03-21T13:56:39.675Z,21.30
2019-03-21T13:59:09.390Z,21.00
2019-03-21T14:01:38.880Z,20.80
2019-03-21T14:04:08.870Z,20.50
2019-03-21T14:06:38.328Z,20.50
2019-03-21T14:09:28.861Z,19.90
2019-03-21T14:11:58.412Z,19.90
2019-03-21T14:14:27.960Z,20.00
2019-03-21T14:16:57.561Z,20.10
2019-03-21T14:19:27.302Z,20.10
2019-03-21T14:21:57.126Z,20.10
2019-03-21T14:24:26.855Z,20.90
2019-03-21T14:27:01.771Z,21.20
2019-03-21T14:29:31.328Z,21.70
2019-03-21T14:32:00.788Z,22.20
2019-03-21T14:34:31.114Z,22.10
2019-03-21T14:37:00.827Z,22.00
2019-03-21T14:39:30.502Z,22.30
2019-03-21T14:42:00.145Z,22.20
2019-03-21T14:44:30.023Z,21.50
2019-03-21T14:47:00.247Z,21.30
2019-03-21T14:49:34.692Z,20.90
2019-03-21T14:52:12.606Z,21.60
2019-03-21T14:54:47.206Z,22.30
2019-03-21T14:57:18.072Z,22.20
2019-03-21T14:59:49.050Z,21.80
2019-03-21T15:02:19.016Z,20.80
2019-03-21T15:04:48.938Z,20.20
2019-03-21T15:07:19.381Z,20.20
2019-03-21T15:09:49.264Z,20.30
2019-03-21T15:12:18.991Z,20.80
2019-03-21T15:14:51.475Z,20.90
2019-03-21T15:17:22.409Z,20.80
2019-03-21T15:19:52.320Z,20.80
2019-03-21T15:22:21.890Z,21.00
2019-03-21T15:24:51.587Z,21.00
2019-03-21T15:27:26.613Z,21.20
2019-03-21T15:29:58.753Z,21.00
2019-03-21T15:32:28.647Z,21.00
2019-03-21T15:34:58.566Z,20.80
2019-03-21T15:37:28.313Z,20.50
2019-03-21T15:39:57.973Z,20.00
2019-03-21T15:42:27.800Z,19.60
2019-03-21T15:45:15.575Z,19.80
2019-03-21T15:47:28.762Z,20.00
2019-03-21T15:50:02.751Z,20.30
2019-03-21T15:52:33.491Z,20.80
2019-03-21T15:55:03.738Z,20.90
2019-03-21T15:57:33.849Z,21.10
2019-03-21T16:00:10.370Z,20.80
2019-03-21T16:02:40.226Z,20.60
2019-03-21T16:05:10.339Z,20.50
2019-03-21T16:07:40.147Z,20.40
2019-03-21T16:10:11.701Z,20.50
2019-03-21T16:12:41.883Z,20.60
2019-03-21T16:15:11.503Z,20.70
2019-03-21T16:17:42.661Z,20.60
2019-03-21T16:20:13.471Z,20.50
2019-03-21T16:22:44.232Z,20.30
2019-03-21T16:25:15.494Z,20.20
2019-03-21T16:27:45.008Z,20.10
2019-03-21T16:30:15.069Z,20.00
2019-03-21T16:32:45.081Z,19.70
2019-03-21T16:35:15.190Z,19.60
2019-03-21T16:37:46.344Z,19.40
2019-03-21T16:40:16.562Z,19.10
2019-03-21T16:42:47.495Z,18.90
2019-03-21T16:45:17.088Z,18.80
2019-03-21T16:47:46.652Z,18.60
2019-03-21T16:50:37.024Z,18.10
2019-03-21T16:53:07.974Z,17.90
2019-03-21T16:55:37.321Z,17.70
2019-03-21T16:58:06.657Z,17.50
2019-03-21T17:00:36.004Z,17.30
2019-03-21T17:03:05.501Z,17.10
2019-03-21T17:05:34.826Z,16.80
2019-03-21T17:08:11.202Z,16.50
2019-03-21T17:10:35.217Z,16.40
2019-03-21T17:13:05.102Z,16.20
2019-03-21T17:15:36.379Z,16.10
2019-03-21T17:18:05.772Z,15.90
2019-03-21T17:20:35.094Z,15.70
2019-03-21T17:23:05.494Z,15.50
2019-03-21T17:25:34.853Z,15.30
2019-03-21T17:28:04.249Z,15.10
2019-03-21T17:30:33.600Z,15.00
2019-03-21T17:33:02.997Z,14.90
2019-03-21T17:35:32.307Z,14.80
2019-03-21T17:38:01.647Z,14.60
2019-03-21T17:40:30.977Z,14.60
2019-03-21T17:43:00.305Z,14.30
2019-03-21T17:45:32.584Z,14.20
2019-03-21T17:48:02.002Z,14.10
2019-03-21T17:50:31.318Z,14.00
2019-03-21T17:53:02.406Z,13.90
2019-03-21T17:55:31.720Z,13.90
2019-03-21T17:58:01.057Z,13.80
2019-03-21T18:00:33.239Z,13.70
2019-03-21T18:03:02.673Z,13.60
2019-03-21T18:05:33.537Z,13.50
2019-03-21T18:08:02.931Z,13.50
2019-03-21T18:10:33.680Z,13.40
2019-03-21T18:13:03.517Z,13.30
2019-03-21T18:15:32.828Z,13.20
2019-03-21T18:18:02.231Z,13.10
2019-03-21T18:20:31.617Z,13.00
2019-03-21T18:23:01.082Z,12.90
2019-03-21T18:25:32.052Z,12.90
2019-03-21T18:28:01.512Z,12.70
2019-03-21T18:30:30.861Z,12.60
2019-03-21T18:33:00.240Z,12.50
2019-03-21T18:35:29.568Z,12.30
2019-03-21T18:37:58.894Z,12.40
2019-03-21T18:40:28.216Z,12.20
2019-03-21T18:42:57.535Z,12.10
2019-03-21T18:45:26.848Z,12.00
2019-03-21T18:47:56.180Z,11.90
2019-03-21T18:50:25.483Z,11.90
2019-03-21T18:52:54.812Z,11.90
2019-03-21T18:55:24.137Z,11.80
2019-03-21T18:57:53.493Z,11.70
2019-03-21T19:00:22.821Z,11.70
2019-03-21T19:02:52.144Z,11.70
2019-03-21T19:05:21.463Z,11.60
2019-03-21T19:07:50.811Z,11.50
2019-03-21T19:10:20.123Z,11.40
2019-03-21T19:12:49.493Z,11.40
2019-03-21T19:15:19.451Z,11.30
2019-03-21T19:17:48.782Z,11.30
2019-03-21T19:20:18.833Z,11.30
2019-03-21T19:22:48.243Z,11.20
2019-03-21T19:25:19.474Z,11.10
2019-03-21T19:27:49.136Z,11.10
2019-03-21T19:30:20.301Z,11.00
2019-03-21T19:32:49.694Z,10.90
2019-03-21T19:35:19.144Z,10.80
2019-03-21T19:37:48.479Z,10.80
2019-03-21T19:40:19.606Z,10.70
2019-03-21T19:42:50.074Z,10.70
2019-03-21T19:45:19.952Z,10.60
2019-03-21T19:47:49.454Z,10.60
2019-03-21T19:50:20.788Z,10.50
2019-03-21T19:52:50.187Z,10.40
2019-03-21T19:55:30.138Z,10.40
2019-03-21T19:57:50.556Z,10.30
2019-03-21T20:00:23.763Z,10.20
2019-03-21T20:02:53.210Z,10.20
2019-03-21T20:05:22.601Z,10.20
2019-03-21T20:07:51.961Z,10.10
2019-03-21T20:10:22.270Z,10.00
2019-03-21T20:12:51.677Z,10.00
2019-03-21T20:15:20.984Z,9.90
2019-03-21T20:17:50.363Z,9.90
2019-03-21T20:20:20.660Z,9.80
2019-03-21T20:22:50.288Z,9.80
2019-03-21T20:25:19.844Z,9.70
2019-03-21T20:27:49.166Z,9.70
2019-03-21T20:30:20.234Z,9.70
2019-03-21T20:32:49.539Z,9.70
2019-03-21T20:35:19.009Z,9.60
2019-03-21T20:37:48.326Z,9.60
2019-03-21T20:40:19.283Z,9.40
2019-03-21T20:42:48.669Z,9.40
2019-03-21T20:45:19.139Z,9.40
2019-03-21T20:47:48.493Z,9.40
2019-03-21T20:50:18.084Z,9.30
2019-03-21T20:52:48.477Z,9.20
2019-03-21T20:55:19.404Z,9.20
2019-03-21T20:57:48.721Z,9.20
2019-03-21T21:00:20.354Z,9.10
2019-03-21T21:02:50.304Z,9.10
2019-03-21T21:05:19.780Z,9.10
2019-03-21T21:07:49.100Z,9.00
2019-03-21T21:10:19.512Z,8.90
2019-03-21T21:12:48.848Z,8.90
2019-03-21T21:15:18.415Z,8.80
2019-03-21T21:18:07.068Z,8.80
2019-03-21T21:20:36.397Z,8.80
2019-03-21T21:23:05.694Z,8.80
2019-03-21T21:25:35.486Z,8.80
2019-03-21T21:28:04.819Z,8.60
2019-03-21T21:30:34.143Z,8.60
2019-03-21T21:33:03.520Z,8.50
2019-03-21T21:35:32.849Z,8.50
2019-03-21T21:38:02.180Z,8.40
2019-03-21T21:40:33.152Z,8.30
2019-03-21T21:43:02.465Z,8.30
2019-03-21T21:45:31.808Z,8.20
2019-03-21T21:48:06.975Z,8.20
2019-03-21T21:50:36.301Z,8.10
2019-03-21T21:53:05.610Z,8.00
2019-03-21T21:55:34.953Z,8.00
2019-03-21T21:58:04.333Z,7.90
2019-03-21T22:00:33.659Z,7.90
2019-03-21T22:03:02.972Z,7.90
2019-03-21T22:05:32.304Z,7.90
2019-03-21T22:08:01.696Z,7.80
2019-03-21T22:10:31.019Z,7.80
2019-03-21T22:13:00.337Z,7.80
2019-03-21T22:15:29.730Z,7.80
2019-03-21T22:17:59.044Z,7.80
2019-03-21T22:20:28.360Z,7.80
2019-03-21T22:22:57.690Z,7.70
2019-03-21T22:25:27.019Z,7.70
2019-03-21T22:27:56.400Z,7.60
2019-03-21T22:30:25.718Z,7.70
2019-03-21T22:32:55.033Z,7.70
2019-03-21T22:35:24.361Z,7.60
2019-03-21T22:37:54.640Z,7.60
2019-03-21T22:40:23.968Z,7.60
2019-03-21T22:42:54.250Z,7.60
2019-03-21T22:45:23.580Z,7.50
2019-03-21T22:47:52.912Z,7.50
2019-03-21T22:50:22.226Z,7.50
2019-03-21T22:52:52.523Z,7.40
2019-03-21T22:55:21.841Z,7.40
2019-03-21T22:57:51.151Z,7.40
2019-03-21T23:00:23.157Z,7.40
2019-03-21T23:02:54.083Z,7.30
2019-03-21T23:05:23.396Z,7.30
2019-03-21T23:07:52.715Z,7.30
2019-03-21T23:10:22.063Z,7.30
2019-03-21T23:12:51.385Z,7.30
2019-03-21T23:15:20.692Z,7.30
2019-03-21T23:17:50.008Z,7.20
2019-03-21T23:20:19.331Z,7.20
2019-03-21T23:22:48.713Z,7.20
2019-03-21T23:25:18.040Z,7.20
2019-03-21T23:27:47.351Z,7.10
2019-03-21T23:30:17.819Z,7.10
2019-03-21T23:32:47.133Z,7.00
2019-03-21T23:35:16.740Z,7.00
2019-03-21T23:37:46.041Z,7.00
2019-03-21T23:40:16.397Z,7.00
2019-03-21T23:42:45.711Z,6.90
2019-03-21T23:45:15.505Z,6.90
2019-03-21T23:47:44.818Z,6.80
2019-03-21T23:50:14.771Z,6.80
2019-03-21T23:52:44.492Z,6.80
2019-03-21T23:55:14.096Z,6.70
2019-03-21T23:57:43.976Z,6.70
